sensor_id;sensor_type;location;lat;lon;timestamp;temperature;humidity
1888;DHT22;944;51.574;6.980;2023-04-25T00:02:04;6.70;99.90
1888;DHT22;944;51.574;6.980;2023-04-25T00:04:46;6.50;99.90
1888;DHT22;944;51.574;6.980;2023-04-25T00:07:18;6.70;99.90
1888;DHT22;944;51.574;6.980;2023-04-25T00:10:03;6.60;99.90
1888;DHT22;944;51.574;6.980;2023-04-25T00:12:32;6.60;99.90
1888;DHT22;944;51.574;6.980;2023-04-25T00:14:59;6.60;99.90
1888;DHT22;944;51.574;6.980;2023-04-25T00:17:31;6.60;99.90
1888;DHT22;944;51.574;6.980;2023-04-25T00:20:00;6.50;99.90
1888;DHT22;944;51.574;6.980;2023-04-25T00:22:30;6.60;99.90
1888;DHT22;944;51.574;6.980;2023-04-25T00:25:00;6.60;99.90
1888;DHT22;944;51.574;6.980;2023-04-25T00:27:28;6.70;99.90
1888;DHT22;944;51.574;6.980;2023-04-25T00:29:56;6.70;99.90
1888;DHT22;944;51.574;6.980;2023-04-25T00:32:34;6.70;99.90
1888;DHT22;944;51.574;6.980;2023-04-25T00:35:11;6.70;99.90
1888;DHT22;944;51.574;6.980;2023-04-25T00:37:38;6.70;99.90
1888;DHT22;944;51.574;6.980;2023-04-25T00:40:11;6.70;99.90
1888;DHT22;944;51.574;6.980;2023-04-25T00:42:44;6.70;99.90
1888;DHT22;944;51.574;6.980;2023-04-25T00:45:13;6.70;99.90
1888;DHT22;944;51.574;6.980;2023-04-25T00:47:44;6.70;99.90
1888;DHT22;944;51.574;6.980;2023-04-25T00:50:13;6.80;99.90
1888;DHT22;944;51.574;6.980;2023-04-25T00:52:43;6.80;99.90
1888;DHT22;944;51.574;6.980;2023-04-25T00:55:13;6.80;99.90
1888;DHT22;944;51.574;6.980;2023-04-25T00:57:44;6.80;99.90
1888;DHT22;944;51.574;6.980;2023-04-25T01:00:19;6.80;99.90
1888;DHT22;944;51.574;6.980;2023-04-25T01:02:46;6.80;99.90
1888;DHT22;944;51.574;6.980;2023-04-25T01:05:14;6.80;99.90
1888;DHT22;944;51.574;6.980;2023-04-25T01:07:41;6.80;99.90
1888;DHT22;944;51.574;6.980;2023-04-25T01:10:29;6.80;99.90
1888;DHT22;944;51.574;6.980;2023-04-25T01:13:03;6.70;99.90
1888;DHT22;944;51.574;6.980;2023-04-25T01:15:37;6.80;99.90
1888;DHT22;944;51.574;6.980;2023-04-25T01:18:09;6.70;99.90
1888;DHT22;944;51.574;6.980;2023-04-25T01:20:46;6.60;99.90
1888;DHT22;944;51.574;6.980;2023-04-25T01:23:15;6.50;99.90
1888;DHT22;944;51.574;6.980;2023-04-25T01:25:45;6.60;99.90
1888;DHT22;944;51.574;6.980;2023-04-25T01:28:17;6.50;99.90
1888;DHT22;944;51.574;6.980;2023-04-25T01:30:46;6.60;99.90
1888;DHT22;944;51.574;6.980;2023-04-25T01:33:16;6.60;99.90
1888;DHT22;944;51.574;6.980;2023-04-25T01:35:53;6.60;99.90
1888;DHT22;944;51.574;6.980;2023-04-25T01:38:36;6.60;99.90
1888;DHT22;944;51.574;6.980;2023-04-25T01:41:14;6.70;99.90
1888;DHT22;944;51.574;6.980;2023-04-25T01:43:42;6.70;99.90
1888;DHT22;944;51.574;6.980;2023-04-25T01:46:12;6.70;99.90
1888;DHT22;944;51.574;6.980;2023-04-25T01:48:48;6.90;99.90
1888;DHT22;944;51.574;6.980;2023-04-25T01:51:17;6.70;99.90
1888;DHT22;944;51.574;6.980;2023-04-25T01:53:54;6.80;99.90
1888;DHT22;944;51.574;6.980;2023-04-25T01:56:31;6.60;99.90
1888;DHT22;944;51.574;6.980;2023-04-25T01:59:08;6.80;99.90
1888;DHT22;944;51.574;6.980;2023-04-25T02:01:44;6.60;99.90
1888;DHT22;944;51.574;6.980;2023-04-25T02:04:29;6.60;99.90
1888;DHT22;944;51.574;6.980;2023-04-25T02:10:28;6.60;99.90
1888;DHT22;944;51.574;6.980;2023-04-25T02:13:11;6.50;99.90
1888;DHT22;944;51.574;6.980;2023-04-25T02:15:52;6.60;99.90
1888;DHT22;944;51.574;6.980;2023-04-25T02:18:41;6.50;99.90
1888;DHT22;944;51.574;6.980;2023-04-25T02:21:12;6.50;99.90
1888;DHT22;944;51.574;6.980;2023-04-25T02:24:06;6.50;99.90
1888;DHT22;944;51.574;6.980;2023-04-25T02:26:37;6.40;99.90
1888;DHT22;944;51.574;6.980;2023-04-25T02:29:07;6.40;99.90
1888;DHT22;944;51.574;6.980;2023-04-25T02:31:37;6.50;99.90
1888;DHT22;944;51.574;6.980;2023-04-25T02:34:04;6.40;99.90
1888;DHT22;944;51.574;6.980;2023-04-25T02:36:32;6.40;99.90
1888;DHT22;944;51.574;6.980;2023-04-25T02:39:20;6.40;99.90
1888;DHT22;944;51.574;6.980;2023-04-25T02:42:04;6.30;99.90
1888;DHT22;944;51.574;6.980;2023-04-25T02:44:34;6.40;99.90
1888;DHT22;944;51.574;6.980;2023-04-25T02:47:09;6.60;99.90
1888;DHT22;944;51.574;6.980;2023-04-25T02:49:48;6.40;99.90
1888;DHT22;944;51.574;6.980;2023-04-25T02:52:20;6.40;99.90
1888;DHT22;944;51.574;6.980;2023-04-25T02:54:52;6.40;99.90
1888;DHT22;944;51.574;6.980;2023-04-25T02:57:42;6.40;99.90
1888;DHT22;944;51.574;6.980;2023-04-25T03:04:05;6.30;99.90
1888;DHT22;944;51.574;6.980;2023-04-25T03:06:39;6.40;99.90
1888;DHT22;944;51.574;6.980;2023-04-25T03:09:23;6.20;99.90
1888;DHT22;944;51.574;6.980;2023-04-25T03:12:00;6.40;99.90
1888;DHT22;944;51.574;6.980;2023-04-25T03:14:43;6.40;99.90
1888;DHT22;944;51.574;6.980;2023-04-25T03:17:33;6.40;99.90
1888;DHT22;944;51.574;6.980;2023-04-25T03:20:07;6.40;99.90
1888;DHT22;944;51.574;6.980;2023-04-25T03:22:35;6.40;99.90
1888;DHT22;944;51.574;6.980;2023-04-25T03:25:09;6.40;99.90
1888;DHT22;944;51.574;6.980;2023-04-25T03:27:47;6.40;99.90
1888;DHT22;944;51.574;6.980;2023-04-25T03:30:20;6.40;99.90
1888;DHT22;944;51.574;6.980;2023-04-25T03:32:53;6.50;99.90
1888;DHT22;944;51.574;6.980;2023-04-25T03:35:39;6.50;99.90
1888;DHT22;944;51.574;6.980;2023-04-25T03:38:12;6.40;99.90
1888;DHT22;944;51.574;6.980;2023-04-25T03:40:46;6.40;99.90
1888;DHT22;944;51.574;6.980;2023-04-25T03:43:24;6.40;99.90
1888;DHT22;944;51.574;6.980;2023-04-25T03:46:06;6.50;99.90
1888;DHT22;944;51.574;6.980;2023-04-25T05:26:05;5.80;99.90
1888;DHT22;944;51.574;6.980;2023-04-25T06:14:43;6.90;99.90
1888;DHT22;944;51.574;6.980;2023-04-25T07:07:01;6.20;99.90
1888;DHT22;944;51.574;6.980;2023-04-25T08:37:13;9.60;99.90
1888;DHT22;944;51.574;6.980;2023-04-25T09:08:24;10.40;99.90
1888;DHT22;944;51.574;6.980;2023-04-25T09:11:07;10.30;99.90
1888;DHT22;944;51.574;6.980;2023-04-25T09:14:17;10.20;99.90
1888;DHT22;944;51.574;6.980;2023-04-25T09:20:34;10.30;99.90
1888;DHT22;944;51.574;6.980;2023-04-25T09:23:15;10.10;99.90
1888;DHT22;944;51.574;6.980;2023-04-25T09:25:52;10.30;99.90
1888;DHT22;944;51.574;6.980;2023-04-25T09:28:29;10.20;99.90
1888;DHT22;944;51.574;6.980;2023-04-25T09:31:03;10.30;99.90
1888;DHT22;944;51.574;6.980;2023-04-25T09:33:44;10.30;99.90
1888;DHT22;944;51.574;6.980;2023-04-25T09:36:49;10.50;99.90
1888;DHT22;944;51.574;6.980;2023-04-25T09:39:19;10.90;99.90
1888;DHT22;944;51.574;6.980;2023-04-25T09:42:11;10.90;99.90
1888;DHT22;944;51.574;6.980;2023-04-25T09:44:47;10.80;99.90
1888;DHT22;944;51.574;6.980;2023-04-25T09:47:17;10.90;99.90
1888;DHT22;944;51.574;6.980;2023-04-25T09:49:48;11.00;99.90
1888;DHT22;944;51.574;6.980;2023-04-25T09:52:24;11.00;99.90
1888;DHT22;944;51.574;6.980;2023-04-25T09:55:23;10.90;99.90
1888;DHT22;944;51.574;6.980;2023-04-25T09:57:54;10.70;99.90
1888;DHT22;944;51.574;6.980;2023-04-25T10:00:30;10.60;99.90
1888;DHT22;944;51.574;6.980;2023-04-25T10:03:02;10.10;99.90
1888;DHT22;944;51.574;6.980;2023-04-25T10:05:32;10.10;99.90
1888;DHT22;944;51.574;6.980;2023-04-25T10:08:02;10.10;99.90
1888;DHT22;944;51.574;6.980;2023-04-25T10:10:32;10.00;99.90
1888;DHT22;944;51.574;6.980;2023-04-25T10:13:05;9.80;99.90
1888;DHT22;944;51.574;6.980;2023-04-25T10:15:35;10.00;99.90
1888;DHT22;944;51.574;6.980;2023-04-25T10:18:04;10.00;99.90
1888;DHT22;944;51.574;6.980;2023-04-25T10:20:33;9.90;99.90
1888;DHT22;944;51.574;6.980;2023-04-25T10:23:08;9.80;99.90
1888;DHT22;944;51.574;6.980;2023-04-25T10:25:42;9.70;99.90
1888;DHT22;944;51.574;6.980;2023-04-25T10:28:09;9.60;99.90
1888;DHT22;944;51.574;6.980;2023-04-25T10:30:56;9.30;99.90
1888;DHT22;944;51.574;6.980;2023-04-25T10:33:32;8.90;99.90
1888;DHT22;944;51.574;6.980;2023-04-25T10:36:09;8.70;99.90
1888;DHT22;944;51.574;6.980;2023-04-25T10:38:37;8.40;99.90
1888;DHT22;944;51.574;6.980;2023-04-25T10:41:09;8.30;99.90
1888;DHT22;944;51.574;6.980;2023-04-25T10:43:38;8.20;99.90
1888;DHT22;944;51.574;6.980;2023-04-25T10:49:50;8.00;99.90
1888;DHT22;944;51.574;6.980;2023-04-25T10:52:24;7.90;99.90
1888;DHT22;944;51.574;6.980;2023-04-25T10:54:57;7.90;99.90
1888;DHT22;944;51.574;6.980;2023-04-25T10:57:36;8.00;99.90
1888;DHT22;944;51.574;6.980;2023-04-25T11:00:10;8.00;99.90
1888;DHT22;944;51.574;6.980;2023-04-25T11:02:48;8.10;99.90
1888;DHT22;944;51.574;6.980;2023-04-25T11:05:22;8.50;99.90
1888;DHT22;944;51.574;6.980;2023-04-25T11:07:58;8.50;99.90
1888;DHT22;944;51.574;6.980;2023-04-25T11:10:26;9.00;99.90
1888;DHT22;944;51.574;6.980;2023-04-25T11:12:55;9.30;99.90
1888;DHT22;944;51.574;6.980;2023-04-25T11:15:22;9.50;99.90
1888;DHT22;944;51.574;6.980;2023-04-25T11:17:51;9.50;99.90
1888;DHT22;944;51.574;6.980;2023-04-25T11:20:21;9.40;99.90
1888;DHT22;944;51.574;6.980;2023-04-25T11:22:48;9.30;99.90
1888;DHT22;944;51.574;6.980;2023-04-25T11:25:16;9.30;99.90
1888;DHT22;944;51.574;6.980;2023-04-25T11:27:50;9.40;99.90
1888;DHT22;944;51.574;6.980;2023-04-25T11:30:25;9.40;99.90
1888;DHT22;944;51.574;6.980;2023-04-25T11:32:54;9.60;99.90
1888;DHT22;944;51.574;6.980;2023-04-25T11:35:23;9.80;99.90
1888;DHT22;944;51.574;6.980;2023-04-25T11:37:51;9.60;99.90
1888;DHT22;944;51.574;6.980;2023-04-25T11:40:18;9.60;99.90
1888;DHT22;944;51.574;6.980;2023-04-25T11:42:46;9.70;99.90
1888;DHT22;944;51.574;6.980;2023-04-25T11:45:14;9.80;99.90
1888;DHT22;944;51.574;6.980;2023-04-25T11:51:23;10.00;99.90
1888;DHT22;944;51.574;6.980;2023-04-25T11:53:53;10.20;99.90
1888;DHT22;944;51.574;6.980;2023-04-25T11:56:20;10.40;99.90
1888;DHT22;944;51.574;6.980;2023-04-25T11:59:00;10.60;99.90
1888;DHT22;944;51.574;6.980;2023-04-25T12:01:29;10.30;99.90
1888;DHT22;944;51.574;6.980;2023-04-25T12:06:55;10.40;99.90
1888;DHT22;944;51.574;6.980;2023-04-25T12:09:30;10.40;99.90
1888;DHT22;944;51.574;6.980;2023-04-25T12:12:00;10.40;99.90
1888;DHT22;944;51.574;6.980;2023-04-25T12:14:30;10.60;99.90
1888;DHT22;944;51.574;6.980;2023-04-25T12:16:59;10.60;99.90
1888;DHT22;944;51.574;6.980;2023-04-25T12:19:36;10.60;99.90
1888;DHT22;944;51.574;6.980;2023-04-25T12:22:20;10.40;99.90
1888;DHT22;944;51.574;6.980;2023-04-25T12:24:50;10.30;99.90
1888;DHT22;944;51.574;6.980;2023-04-25T12:27:19;10.10;99.90
1888;DHT22;944;51.574;6.980;2023-04-25T12:29:53;9.60;99.90
1888;DHT22;944;51.574;6.980;2023-04-25T12:32:23;9.20;99.90
1888;DHT22;944;51.574;6.980;2023-04-25T12:34:51;9.00;99.90
1888;DHT22;944;51.574;6.980;2023-04-25T12:37:29;8.90;99.90
1888;DHT22;944;51.574;6.980;2023-04-25T12:39:58;8.90;99.90
1888;DHT22;944;51.574;6.980;2023-04-25T12:42:25;9.00;99.90
1888;DHT22;944;51.574;6.980;2023-04-25T12:44:53;8.90;99.90
1888;DHT22;944;51.574;6.980;2023-04-25T12:47:21;8.90;99.90
1888;DHT22;944;51.574;6.980;2023-04-25T12:53:31;9.10;99.90
1888;DHT22;944;51.574;6.980;2023-04-25T12:56:01;9.10;99.90
1888;DHT22;944;51.574;6.980;2023-04-25T12:58:29;9.40;99.90
1888;DHT22;944;51.574;6.980;2023-04-25T13:01:01;9.50;99.90
1888;DHT22;944;51.574;6.980;2023-04-25T13:03:29;9.50;99.90
1888;DHT22;944;51.574;6.980;2023-04-25T13:09:38;9.60;99.90
1888;DHT22;944;51.574;6.980;2023-04-25T13:12:10;9.60;99.90
1888;DHT22;944;51.574;6.980;2023-04-25T13:14:37;9.40;99.90
1888;DHT22;944;51.574;6.980;2023-04-25T13:17:07;9.30;99.90
1888;DHT22;944;51.574;6.980;2023-04-25T13:19:34;9.30;99.90
1888;DHT22;944;51.574;6.980;2023-04-25T13:22:03;9.30;99.90
1888;DHT22;944;51.574;6.980;2023-04-25T13:24:32;9.30;99.90
1888;DHT22;944;51.574;6.980;2023-04-25T13:27:03;9.30;99.90
1888;DHT22;944;51.574;6.980;2023-04-25T13:29:36;9.40;99.90
1888;DHT22;944;51.574;6.980;2023-04-25T13:32:09;9.50;99.90
1888;DHT22;944;51.574;6.980;2023-04-25T13:34:37;9.50;99.90
1888;DHT22;944;51.574;6.980;2023-04-25T13:40:47;9.70;99.90
1888;DHT22;944;51.574;6.980;2023-04-25T13:46:56;10.40;99.90
1888;DHT22;944;51.574;6.980;2023-04-25T13:50:35;10.30;99.90
1888;DHT22;944;51.574;6.980;2023-04-25T13:53:47;10.40;99.90
1888;DHT22;944;51.574;6.980;2023-04-25T13:57:15;10.30;99.90
1888;DHT22;944;51.574;6.980;2023-04-25T14:21:57;11.20;99.90
1888;DHT22;944;51.574;6.980;2023-04-25T14:36:00;11.50;99.90
1888;DHT22;944;51.574;6.980;2023-04-25T14:46:21;10.20;99.90
1888;DHT22;944;51.574;6.980;2023-04-25T14:49:08;10.00;99.90
1888;DHT22;944;51.574;6.980;2023-04-25T14:51:37;9.90;99.90
1888;DHT22;944;51.574;6.980;2023-04-25T14:54:04;9.90;99.90
1888;DHT22;944;51.574;6.980;2023-04-25T14:56:35;9.90;99.90
1888;DHT22;944;51.574;6.980;2023-04-25T14:59:05;10.10;99.90
1888;DHT22;944;51.574;6.980;2023-04-25T15:01:37;10.00;99.90
1888;DHT22;944;51.574;6.980;2023-04-25T15:04:04;10.40;99.90
1888;DHT22;944;51.574;6.980;2023-04-25T15:06:40;10.50;99.90
1888;DHT22;944;51.574;6.980;2023-04-25T15:09:10;10.70;99.90
1888;DHT22;944;51.574;6.980;2023-04-25T15:11:41;10.60;99.90
1888;DHT22;944;51.574;6.980;2023-04-25T15:14:11;10.50;99.90
1888;DHT22;944;51.574;6.980;2023-04-25T15:16:45;10.40;99.90
1888;DHT22;944;51.574;6.980;2023-04-25T15:23:10;10.40;99.90
1888;DHT22;944;51.574;6.980;2023-04-25T15:25:37;10.40;99.90
1888;DHT22;944;51.574;6.980;2023-04-25T15:28:04;10.50;99.90
1888;DHT22;944;51.574;6.980;2023-04-25T15:30:31;10.60;99.90
1888;DHT22;944;51.574;6.980;2023-04-25T15:32:59;10.70;99.90
1888;DHT22;944;51.574;6.980;2023-04-25T15:35:30;10.70;99.90
1888;DHT22;944;51.574;6.980;2023-04-25T15:38:16;10.80;99.90
1888;DHT22;944;51.574;6.980;2023-04-25T15:40:54;10.90;99.90
1888;DHT22;944;51.574;6.980;2023-04-25T15:46:24;11.00;99.90
1888;DHT22;944;51.574;6.980;2023-04-25T15:49:12;11.10;99.90
1888;DHT22;944;51.574;6.980;2023-04-25T15:51:51;11.20;99.90
1888;DHT22;944;51.574;6.980;2023-04-25T15:54:26;11.10;99.90
1888;DHT22;944;51.574;6.980;2023-04-25T15:57:02;11.00;99.90
1888;DHT22;944;51.574;6.980;2023-04-25T15:59:41;10.80;99.90
1888;DHT22;944;51.574;6.980;2023-04-25T16:03:06;10.70;99.90
1888;DHT22;944;51.574;6.980;2023-04-25T16:05:29;10.40;99.90
1888;DHT22;944;51.574;6.980;2023-04-25T16:08:05;10.10;99.90
1888;DHT22;944;51.574;6.980;2023-04-25T16:11:11;10.10;99.90
1888;DHT22;944;51.574;6.980;2023-04-25T16:14:01;10.20;99.90
1888;DHT22;944;51.574;6.980;2023-04-25T16:16:33;10.10;99.90
1888;DHT22;944;51.574;6.980;2023-04-25T16:19:15;10.10;99.90
1888;DHT22;944;51.574;6.980;2023-04-25T16:26:10;10.00;99.90
1888;DHT22;944;51.574;6.980;2023-04-25T16:28:37;10.00;99.90
1888;DHT22;944;51.574;6.980;2023-04-25T16:31:04;10.00;99.90
1888;DHT22;944;51.574;6.980;2023-04-25T16:33:33;9.90;99.90
1888;DHT22;944;51.574;6.980;2023-04-25T16:36:00;9.80;99.90
1888;DHT22;944;51.574;6.980;2023-04-25T16:38:27;9.70;99.90
1888;DHT22;944;51.574;6.980;2023-04-25T16:40:55;9.70;99.90
1888;DHT22;944;51.574;6.980;2023-04-25T16:43:31;9.70;99.90
1888;DHT22;944;51.574;6.980;2023-04-25T16:45:58;9.60;99.90
1888;DHT22;944;51.574;6.980;2023-04-25T16:48:25;9.60;99.90
1888;DHT22;944;51.574;6.980;2023-04-25T16:50:52;9.60;99.90
1888;DHT22;944;51.574;6.980;2023-04-25T16:53:19;9.50;99.90
1888;DHT22;944;51.574;6.980;2023-04-25T16:55:50;9.60;99.90
1888;DHT22;944;51.574;6.980;2023-04-25T16:58:18;9.70;99.90
1888;DHT22;944;51.574;6.980;2023-04-25T17:00:46;9.70;99.90
1888;DHT22;944;51.574;6.980;2023-04-25T17:03:14;9.80;99.90
1888;DHT22;944;51.574;6.980;2023-04-25T17:05:41;9.90;99.90
1888;DHT22;944;51.574;6.980;2023-04-25T17:08:09;9.70;99.90
1888;DHT22;944;51.574;6.980;2023-04-25T17:10:39;9.70;99.90
1888;DHT22;944;51.574;6.980;2023-04-25T17:13:06;9.70;99.90
1888;DHT22;944;51.574;6.980;2023-04-25T17:15:36;9.80;99.90
1888;DHT22;944;51.574;6.980;2023-04-25T17:21:51;9.80;99.90
1888;DHT22;944;51.574;6.980;2023-04-25T17:24:21;9.80;99.90
1888;DHT22;944;51.574;6.980;2023-04-25T17:26:48;9.60;99.90
1888;DHT22;944;51.574;6.980;2023-04-25T17:29:18;9.50;99.90
1888;DHT22;944;51.574;6.980;2023-04-25T17:31:48;9.40;99.90
1888;DHT22;944;51.574;6.980;2023-04-25T17:34:15;9.40;99.90
1888;DHT22;944;51.574;6.980;2023-04-25T17:36:47;9.40;99.90
1888;DHT22;944;51.574;6.980;2023-04-25T17:39:16;9.40;99.90
1888;DHT22;944;51.574;6.980;2023-04-25T17:41:46;9.40;99.90
1888;DHT22;944;51.574;6.980;2023-04-25T17:44:13;9.30;99.90
1888;DHT22;944;51.574;6.980;2023-04-25T17:46:40;9.40;99.90
1888;DHT22;944;51.574;6.980;2023-04-25T17:49:07;9.30;99.90
1888;DHT22;944;51.574;6.980;2023-04-25T17:51:35;9.30;99.90
1888;DHT22;944;51.574;6.980;2023-04-25T17:54:05;9.20;99.90
1888;DHT22;944;51.574;6.980;2023-04-25T17:56:35;9.10;99.90
1888;DHT22;944;51.574;6.980;2023-04-25T17:59:05;9.00;99.90
1888;DHT22;944;51.574;6.980;2023-04-25T18:02:19;9.00;99.90
1888;DHT22;944;51.574;6.980;2023-04-25T18:05:33;9.00;99.90
1888;DHT22;944;51.574;6.980;2023-04-25T18:07:58;8.90;99.90
1888;DHT22;944;51.574;6.980;2023-04-25T18:10:47;8.80;99.90
1888;DHT22;944;51.574;6.980;2023-04-25T18:13:16;8.70;99.90
1888;DHT22;944;51.574;6.980;2023-04-25T18:15:43;8.70;99.90
1888;DHT22;944;51.574;6.980;2023-04-25T18:18:10;8.70;99.90
1888;DHT22;944;51.574;6.980;2023-04-25T18:20:44;8.60;99.90
1888;DHT22;944;51.574;6.980;2023-04-25T18:23:12;8.40;99.90
1888;DHT22;944;51.574;6.980;2023-04-25T18:26:13;8.40;99.90
1888;DHT22;944;51.574;6.980;2023-04-25T18:28:40;8.20;99.90
1888;DHT22;944;51.574;6.980;2023-04-25T18:31:08;8.20;99.90
1888;DHT22;944;51.574;6.980;2023-04-25T18:33:36;8.20;99.90
1888;DHT22;944;51.574;6.980;2023-04-25T18:36:03;8.20;99.90
1888;DHT22;944;51.574;6.980;2023-04-25T18:38:32;8.20;99.90
1888;DHT22;944;51.574;6.980;2023-04-25T18:44:30;8.30;99.90
1888;DHT22;944;51.574;6.980;2023-04-25T18:47:00;8.30;99.90
1888;DHT22;944;51.574;6.980;2023-04-25T18:49:27;8.10;99.90
1888;DHT22;944;51.574;6.980;2023-04-25T18:51:54;8.20;99.90
1888;DHT22;944;51.574;6.980;2023-04-25T18:54:21;8.00;99.90
1888;DHT22;944;51.574;6.980;2023-04-25T18:56:48;7.90;99.90
1888;DHT22;944;51.574;6.980;2023-04-25T18:59:16;8.00;99.90
1888;DHT22;944;51.574;6.980;2023-04-25T19:01:45;7.90;99.90
1888;DHT22;944;51.574;6.980;2023-04-25T19:04:13;7.80;99.90
1888;DHT22;944;51.574;6.980;2023-04-25T19:06:42;7.80;99.90
1888;DHT22;944;51.574;6.980;2023-04-25T19:09:12;7.80;99.90
1888;DHT22;944;51.574;6.980;2023-04-25T19:11:44;7.60;99.90
1888;DHT22;944;51.574;6.980;2023-04-25T19:14:20;7.70;99.90
1888;DHT22;944;51.574;6.980;2023-04-25T19:17:07;7.70;99.90
1888;DHT22;944;51.574;6.980;2023-04-25T19:19:36;7.60;99.90
1888;DHT22;944;51.574;6.980;2023-04-25T19:22:09;7.50;99.90
1888;DHT22;944;51.574;6.980;2023-04-25T19:24:37;7.40;99.90
1888;DHT22;944;51.574;6.980;2023-04-25T19:27:06;7.30;99.90
1888;DHT22;944;51.574;6.980;2023-04-25T19:29:35;7.30;99.90
1888;DHT22;944;51.574;6.980;2023-04-25T19:32:10;7.20;99.90
1888;DHT22;944;51.574;6.980;2023-04-25T19:34:39;7.20;99.90
1888;DHT22;944;51.574;6.980;2023-04-25T19:37:06;7.20;99.90
1888;DHT22;944;51.574;6.980;2023-04-25T19:39:34;7.10;99.90
1888;DHT22;944;51.574;6.980;2023-04-25T19:42:02;7.00;99.90
1888;DHT22;944;51.574;6.980;2023-04-25T19:44:29;7.00;99.90
1888;DHT22;944;51.574;6.980;2023-04-25T19:46:56;6.90;99.90
1888;DHT22;944;51.574;6.980;2023-04-25T19:49:26;6.90;99.90
1888;DHT22;944;51.574;6.980;2023-04-25T19:51:56;6.80;99.90
1888;DHT22;944;51.574;6.980;2023-04-25T19:54:23;6.70;99.90
1888;DHT22;944;51.574;6.980;2023-04-25T19:56:50;6.60;99.90
1888;DHT22;944;51.574;6.980;2023-04-25T19:59:19;6.50;99.90
1888;DHT22;944;51.574;6.980;2023-04-25T20:01:46;6.50;99.90
1888;DHT22;944;51.574;6.980;2023-04-25T20:04:13;6.50;99.90
1888;DHT22;944;51.574;6.980;2023-04-25T20:06:44;6.40;99.90
1888;DHT22;944;51.574;6.980;2023-04-25T20:09:11;6.30;99.90
1888;DHT22;944;51.574;6.980;2023-04-25T20:11:43;6.20;99.90
1888;DHT22;944;51.574;6.980;2023-04-25T20:14:46;6.20;99.90
1888;DHT22;944;51.574;6.980;2023-04-25T21:41:50;4.70;99.90
1888;DHT22;944;51.574;6.980;2023-04-25T21:44:21;4.60;99.90
1888;DHT22;944;51.574;6.980;2023-04-25T21:46:56;4.50;99.90
1888;DHT22;944;51.574;6.980;2023-04-25T21:49:47;4.50;99.90
1888;DHT22;944;51.574;6.980;2023-04-25T21:52:18;4.50;99.90
1888;DHT22;944;51.574;6.980;2023-04-25T21:54:49;4.40;99.90
1888;DHT22;944;51.574;6.980;2023-04-25T21:57:26;4.40;99.90
1888;DHT22;944;51.574;6.980;2023-04-25T21:59:57;4.40;99.90
1888;DHT22;944;51.574;6.980;2023-04-25T22:02:54;4.60;99.90
1888;DHT22;944;51.574;6.980;2023-04-25T22:09:08;4.40;99.90
1888;DHT22;944;51.574;6.980;2023-04-25T22:11:38;4.30;99.90
1888;DHT22;944;51.574;6.980;2023-04-25T22:25:45;4.20;99.90
1888;DHT22;944;51.574;6.980;2023-04-25T22:28:18;4.10;99.90
1888;DHT22;944;51.574;6.980;2023-04-25T22:30:55;4.10;99.90
1888;DHT22;944;51.574;6.980;2023-04-25T22:33:25;4.20;99.90
1888;DHT22;944;51.574;6.980;2023-04-25T22:35:58;4.20;99.90
1888;DHT22;944;51.574;6.980;2023-04-25T22:38:28;4.10;99.90
1888;DHT22;944;51.574;6.980;2023-04-25T22:40:59;4.20;99.90
1888;DHT22;944;51.574;6.980;2023-04-25T22:43:26;4.20;99.90
1888;DHT22;944;51.574;6.980;2023-04-25T23:13:10;3.80;99.90
1888;DHT22;944;51.574;6.980;2023-04-25T23:16:31;3.80;99.90
1888;DHT22;944;51.574;6.980;2023-04-25T23:20:49;3.70;99.90
1888;DHT22;944;51.574;6.980;2023-04-25T23:23:27;3.50;99.90
1888;DHT22;944;51.574;6.980;2023-04-25T23:25:56;3.60;99.90
1888;DHT22;944;51.574;6.980;2023-04-25T23:28:29;3.50;99.90
